Time;durP1;ratioP1;P1;durP2;ratioP2;P2;SDS_P1;SDS_P2;PMS_P1;PMS_P2;Temp;Humidity;BMP_temperature;BMP_pressure;BME280_temperature;BME280_humidity;BME280_pressure;Samples;Min_cycle;Max_cycle;Signal;HPM_P1;HPM_P2
2021/03/04 00:00:53;;;;;;;63.17;24.12;;;;;;;6.26;64.01;100924.27;1750041;79;25800;-65
2021/03/04 00:03:21;;;;;;;63.08;23.75;;;;;;;6.26;64.19;100920.73;1746470;79;26581;-65
2021/03/04 00:05:49;;;;;;;56.20;22.80;;;;;;;6.25;64.25;100923.85;1745689;81;25763;-65
2021/03/04 00:08:17;;;;;;;60.80;23.80;;;;;;;6.23;64.25;100913.69;1745551;81;27897;-65
2021/03/04 00:10:45;;;;;;;66.37;23.75;;;;;;;6.23;64.34;100908.82;1745745;81;26150;-65
2021/03/04 00:13:12;;;;;;;60.52;23.50;;;;;;;6.22;64.43;100910.61;1745709;81;25636;-65
2021/03/04 00:15:41;;;;;;;52.65;22.35;;;;;;;6.22;64.51;100904.41;1745803;81;25698;-64
2021/03/04 00:18:09;;;;;;;52.30;22.00;;;;;;;6.23;64.66;100907.03;1745921;81;25693;-65
2021/03/04 00:20:37;;;;;;;58.45;23.18;;;;;;;6.25;64.84;100900.35;1745751;81;25956;-65
2021/03/04 00:23:04;;;;;;;51.77;21.90;;;;;;;6.26;64.82;100904.31;1745715;81;25838;-65
2021/03/04 00:25:35;;;;;;;54.95;22.13;;;;;;;6.28;64.85;100898.50;1752336;80;25731;-65
2021/03/04 00:28:05;;;;;;;57.95;23.32;;;;;;;6.30;65.04;100898.47;1758674;80;26105;-66
2021/03/04 00:30:33;;;;;;;52.85;19.62;;;;;;;6.32;65.24;100896.19;1768143;78;25715;-65
2021/03/04 00:33:00;;;;;;;50.43;20.40;;;;;;;6.33;65.10;100893.95;1761470;80;27638;-65
2021/03/04 00:35:28;;;;;;;51.23;22.73;;;;;;;6.35;65.25;100887.27;1755849;78;25737;-65
2021/03/04 00:37:56;;;;;;;55.63;22.17;;;;;;;6.36;65.31;100885.02;1760362;79;25922;-65
2021/03/04 00:40:24;;;;;;;55.88;22.67;;;;;;;6.38;65.32;100885.86;1759712;78;26085;-65
2021/03/04 00:42:52;;;;;;;46.68;23.47;;;;;;;6.40;65.39;100881.37;1767945;79;25876;-65
2021/03/04 00:45:24;;;;;;;52.35;21.87;;;;;;;6.41;65.68;100882.67;1761792;78;28410;-65
2021/03/04 00:47:52;;;;;;;55.20;22.85;;;;;;;6.42;65.46;100870.23;1758943;80;25749;-65
2021/03/04 00:50:19;;;;;;;52.70;22.30;;;;;;;6.42;65.60;100872.45;1757513;78;25795;-65
2021/03/04 00:52:50;;;;;;;58.08;23.40;;;;;;;6.43;65.63;100867.55;1761520;79;25757;-65
2021/03/04 00:55:17;;;;;;;51.95;22.95;;;;;;;6.45;65.80;100872.83;1762040;78;25795;-65
2021/03/04 00:57:44;;;;;;;48.83;21.60;;;;;;;6.45;65.92;100868.84;1758995;78;27494;-65
2021/03/04 01:00:15;;;;;;;47.00;21.12;;;;;;;6.45;65.92;100858.19;1756862;78;26718;-66
2021/03/04 01:02:42;;;;;;;47.13;20.40;;;;;;;6.44;65.90;100866.63;1761689;80;25517;-66
2021/03/04 01:05:12;;;;;;;50.70;21.70;;;;;;;6.42;66.00;100859.13;1763143;78;26285;-66
2021/03/04 01:07:39;;;;;;;54.10;21.33;;;;;;;6.42;66.00;100856.92;1761831;80;25841;-64
2021/03/04 01:10:15;;;;;;;42.15;18.75;;;;;;;6.40;66.06;100853.42;1763067;80;28257;-64
2021/03/04 01:12:42;;;;;;;50.38;21.40;;;;;;;6.38;66.07;100855.24;1761913;80;25713;-66
2021/03/04 01:15:15;;;;;;;47.25;20.10;;;;;;;6.37;66.12;100858.36;1763927;78;25709;-64
2021/03/04 01:17:43;;;;;;;44.75;19.17;;;;;;;6.35;66.44;100857.98;1764079;78;26414;-64
2021/03/04 01:20:15;;;;;;;46.08;19.62;;;;;;;6.37;66.51;100845.50;1762039;78;25408;-64
2021/03/04 01:22:44;;;;;;;49.30;20.50;;;;;;;6.36;66.49;100846.42;1759591;80;27735;-64
2021/03/04 01:25:14;;;;;;;63.55;20.43;;;;;;;6.34;66.86;100840.25;1766350;78;26435;-64
2021/03/04 01:27:43;;;;;;;46.37;20.57;;;;;;;6.32;66.74;100839.41;1746609;79;25910;-64
2021/03/04 01:30:13;;;;;;;47.00;20.32;;;;;;;6.28;66.79;100822.63;1752885;79;26644;-64
2021/03/04 01:32:42;;;;;;;50.58;19.10;;;;;;;6.28;67.07;100821.76;1764198;78;25900;-64
2021/03/04 01:35:11;;;;;;;50.50;21.70;;;;;;;6.25;66.98;100817.38;1762014;77;28434;-64
2021/03/04 01:37:38;;;;;;;53.58;21.60;;;;;;;6.20;66.93;100819.27;1757073;80;26004;-65
2021/03/04 01:40:10;;;;;;;50.23;19.57;;;;;;;6.18;67.34;100815.77;1763568;78;25775;-64
2021/03/04 01:42:39;;;;;;;51.10;21.23;;;;;;;6.19;67.27;100817.06;1755831;80;26600;-64
2021/03/04 01:45:09;;;;;;;46.60;20.48;;;;;;;6.16;67.32;100814.47;1766326;78;25885;-64
2021/03/04 01:47:40;;;;;;;48.57;20.57;;;;;;;6.16;67.41;100816.26;1754422;79;27853;-64
2021/03/04 01:50:11;;;;;;;48.85;19.75;;;;;;;6.16;67.47;100806.48;1748107;80;25966;-64
2021/03/04 01:52:39;;;;;;;49.67;21.05;;;;;;;6.14;67.42;100804.31;1762230;80;26275;-65
2021/03/04 01:55:08;;;;;;;53.50;20.57;;;;;;;6.11;67.57;100804.38;1753358;78;26299;-66
2021/03/04 01:57:37;;;;;;;48.23;20.72;;;;;;;6.11;67.59;100794.20;1748277;79;25871;-64
2021/03/04 02:00:08;;;;;;;52.93;21.45;;;;;;;6.10;67.60;100793.77;1749734;79;27853;-65
2021/03/04 02:02:36;;;;;;;54.40;21.35;;;;;;;6.03;67.64;100792.16;1762311;79;26209;-65
2021/03/04 02:05:08;;;;;;;46.68;19.55;;;;;;;6.05;67.72;100796.54;1755261;79;25758;-65
2021/03/04 02:07:55;;;;;;;49.18;21.07;;;;;;;6.03;67.78;100793.03;1757948;79;25984;-65
2021/03/04 02:10:43;;;;;;;45.80;21.35;;;;;;;6.03;68.00;100800.14;1753992;79;25783;-65
2021/03/04 02:13:36;;;;;;;47.60;18.23;;;;;;;6.02;68.08;100801.05;1756339;78;27891;-65
2021/03/04 02:16:20;;;;;;;50.33;21.23;;;;;;;5.98;68.20;100800.24;1762652;78;26484;-65
2021/03/04 02:18:53;;;;;;;46.77;19.80;;;;;;;5.97;68.23;100797.62;1756563;79;26497;-65
2021/03/04 02:21:57;;;;;;;51.63;23.10;;;;;;;5.94;68.37;100787.05;1761342;78;26566;-65
2021/03/04 02:24:32;;;;;;;44.27;21.25;;;;;;;5.90;68.50;100783.58;1753917;79;25836;-65
2021/03/04 02:27:16;;;;;;;44.88;19.77;;;;;;;5.94;68.64;100781.27;1773564;78;27916;-66
2021/03/04 02:29:52;;;;;;;54.65;21.42;;;;;;;5.94;68.70;100774.62;1754167;77;25949;-65
2021/03/04 02:32:24;;;;;;;46.58;20.85;;;;;;;5.91;68.81;100776.02;1761947;77;26543;-65
2021/03/04 02:35:00;;;;;;;49.50;20.37;;;;;;;5.91;68.75;100769.82;1762529;78;26209;-66
2021/03/04 02:37:33;;;;;;;48.98;22.00;;;;;;;5.90;68.78;100758.30;1738692;78;25873;-65
2021/03/04 02:40:01;;;;;;;40.38;19.90;;;;;;;5.92;68.98;100759.59;1760926;78;27899;-65
2021/03/04 02:42:30;;;;;;;45.43;19.90;;;;;;;5.91;69.11;100761.38;1776381;78;26244;-65
2021/03/04 02:44:59;;;;;;;52.45;21.87;;;;;;;5.86;69.18;100764.57;1774333;78;26427;-65
2021/03/04 02:47:27;;;;;;;54.23;22.82;;;;;;;5.85;69.45;100766.35;1771756;78;26061;-65
2021/03/04 02:49:56;;;;;;;56.00;24.50;;;;;;;5.83;69.39;100765.97;1773763;79;25895;-65
2021/03/04 02:52:24;;;;;;;47.85;20.68;;;;;;;5.81;69.42;100770.44;1775012;78;27531;-65
2021/03/04 02:54:53;;;;;;;51.35;23.38;;;;;;;5.81;69.51;100770.44;1770510;78;26521;-65
2021/03/04 02:57:23;;;;;;;50.83;22.60;;;;;;;5.79;69.66;100766.94;1772067;78;26555;-65
2021/03/04 02:59:52;;;;;;;58.73;21.00;;;;;;;5.79;69.80;100770.93;1777947;78;26560;-65
2021/03/04 03:02:21;;;;;;;45.80;21.95;;;;;;;5.77;69.91;100768.30;1757177;77;26094;-65
2021/03/04 03:04:50;;;;;;;50.48;22.87;;;;;;;5.73;70.11;100767.95;1774076;79;28336;-65
2021/03/04 03:07:19;;;;;;;49.67;23.12;;;;;;;5.72;70.29;100774.17;1766989;78;25832;-65
2021/03/04 03:09:47;;;;;;;53.75;24.47;;;;;;;5.72;70.61;100765.33;1773264;78;25816;-65
2021/03/04 03:12:18;;;;;;;62.67;25.62;;;;;;;5.70;70.48;100771.12;1754208;79;26611;-65
2021/03/04 03:14:46;;;;;;;50.15;21.87;;;;;;;5.68;70.46;100776.94;1772735;77;25839;-65
2021/03/04 03:17:14;;;;;;;51.70;23.05;;;;;;;5.67;71.08;100784.48;1775287;78;27719;-65
2021/03/04 03:19:42;;;;;;;58.63;24.75;;;;;;;5.67;71.21;100773.85;1768756;79;26702;-65
2021/03/04 03:22:09;;;;;;;56.05;24.12;;;;;;;5.64;71.12;100770.80;1779398;78;25359;-65
2021/03/04 03:24:38;;;;;;;55.03;25.50;;;;;;;5.65;71.20;100769.02;1781749;78;25824;-65
2021/03/04 03:27:06;;;;;;;67.05;27.95;;;;;;;5.63;71.34;100777.03;1783957;78;26636;-65
2021/03/04 03:29:33;;;;;;;59.63;24.45;;;;;;;5.62;71.43;100771.75;1778545;77;28564;-65
2021/03/04 03:32:03;;;;;;;60.10;25.75;;;;;;;5.61;71.55;100788.61;1775290;78;25899;-65
2021/03/04 03:34:31;;;;;;;68.12;30.68;;;;;;;5.57;71.78;100782.48;1781154;78;25803;-65
2021/03/04 03:36:58;;;;;;;59.27;27.13;;;;;;;5.54;71.90;100759.48;1780182;78;26065;-65
2021/03/04 03:39:27;;;;;;;65.42;27.15;;;;;;;5.55;71.80;100771.88;1767609;78;25843;-65
2021/03/04 03:41:55;;;;;;;61.35;25.82;;;;;;;5.54;71.70;100775.44;1772190;78;27692;-65
2021/03/04 03:44:23;;;;;;;65.70;26.27;;;;;;;5.51;71.80;100771.97;1772467;78;25845;-65
2021/03/04 03:46:52;;;;;;;59.00;25.10;;;;;;;5.48;71.85;100778.67;1772192;79;25840;-65
2021/03/04 03:49:20;;;;;;;64.92;28.35;;;;;;;5.45;71.93;100768.11;1774771;78;26464;-65
2021/03/04 03:51:48;;;;;;;62.73;28.02;;;;;;;5.43;71.98;100775.23;1759359;78;26485;-65
2021/03/04 03:54:17;;;;;;;65.47;27.42;;;;;;;5.40;72.10;100777.50;1763294;78;27770;-65
2021/03/04 03:56:45;;;;;;;66.80;28.23;;;;;;;5.39;72.13;100775.75;1761154;77;25973;-65
2021/03/04 03:59:14;;;;;;;54.65;24.65;;;;;;;5.39;72.05;100779.73;1760981;78;25917;-65
2021/03/04 04:01:43;;;;;;;59.77;25.50;;;;;;;5.39;72.03;100782.39;1774280;78;25744;-65
2021/03/04 04:04:11;;;;;;;60.73;26.45;;;;;;;5.39;72.06;100781.06;1757647;78;26467;-65
2021/03/04 04:06:39;;;;;;;66.97;27.70;;;;;;;5.42;72.10;100770.83;1772459;78;28420;-65
2021/03/04 04:09:09;;;;;;;67.25;26.50;;;;;;;5.46;72.18;100773.84;1767393;78;25826;-65
2021/03/04 04:11:37;;;;;;;64.53;28.33;;;;;;;5.46;72.13;100773.39;1759596;79;25831;-65
2021/03/04 04:14:05;;;;;;;60.98;28.32;;;;;;;5.49;72.41;100777.77;1760619;79;26017;-65
2021/03/04 04:16:35;;;;;;;64.62;27.98;;;;;;;5.49;72.73;100773.33;1763127;78;25885;-65
2021/03/04 04:19:03;;;;;;;65.78;27.67;;;;;;;5.50;72.50;100768.89;1768950;78;27748;-65
2021/03/04 04:21:32;;;;;;;65.45;27.48;;;;;;;5.51;72.55;100767.98;1761630;78;25892;-66
2021/03/04 04:24:00;;;;;;;58.30;26.15;;;;;;;5.51;72.76;100770.19;1785092;78;25938;-65
2021/03/04 04:26:28;;;;;;;69.30;27.05;;;;;;;5.51;72.94;100759.55;1779855;76;26650;-65
2021/03/04 04:28:55;;;;;;;79.17;31.95;;;;;;;5.49;73.10;100760.04;1764144;78;25756;-65
2021/03/04 04:31:23;;;;;;;62.85;27.87;;;;;;;5.48;73.53;100762.27;1765327;78;27616;-65
2021/03/04 04:33:51;;;;;;;64.85;29.80;;;;;;;5.48;73.40;100756.08;1771544;78;26109;-65
2021/03/04 04:36:19;;;;;;;76.92;32.95;;;;;;;5.48;73.44;100764.06;1769093;78;26019;-65
2021/03/04 04:38:46;;;;;;;86.28;36.63;;;;;;;5.47;73.63;100753.88;1773357;78;25898;-65
2021/03/04 04:41:14;;;;;;;89.32;38.00;;;;;;;5.49;73.80;100767.14;1770466;78;25840;-65
2021/03/04 04:43:42;;;;;;;94.37;39.98;;;;;;;5.50;73.80;100763.12;1759466;78;27792;-65
2021/03/04 04:46:10;;;;;;;79.70;33.42;;;;;;;5.54;73.76;100752.84;1760541;78;26383;-65
2021/03/04 04:48:38;;;;;;;99.85;41.20;;;;;;;5.55;73.75;100757.25;1768583;78;25807;-65
2021/03/04 04:51:06;;;;;;;92.17;37.03;;;;;;;5.54;73.81;100750.18;1771490;78;26699;-65
2021/03/04 04:53:34;;;;;;;102.10;40.40;;;;;;;5.53;74.14;100740.45;1765002;78;25965;-65
2021/03/04 04:56:03;;;;;;;97.82;40.38;;;;;;;5.53;74.12;100744.89;1776039;78;26143;-66
2021/03/04 04:58:31;;;;;;;108.25;46.18;;;;;;;5.52;74.04;100740.48;1765372;78;27077;-65
2021/03/04 05:00:58;;;;;;;104.53;42.83;;;;;;;5.51;74.32;100747.59;1765838;79;25775;-66
2021/03/04 05:03:26;;;;;;;109.75;44.05;;;;;;;5.53;74.57;100739.58;1769154;78;26411;-65
2021/03/04 05:05:54;;;;;;;108.05;47.27;;;;;;;5.53;74.87;100733.81;1764525;78;25826;-65
2021/03/04 05:08:22;;;;;;;110.10;45.15;;;;;;;5.53;74.77;100728.49;1770032;78;27816;-65
2021/03/04 05:10:50;;;;;;;103.80;45.38;;;;;;;5.53;74.86;100729.82;1769174;78;25904;-65
2021/03/04 05:13:18;;;;;;;98.95;41.00;;;;;;;5.51;74.73;100728.10;1764961;78;25797;-65
2021/03/04 05:15:45;;;;;;;93.40;39.75;;;;;;;5.52;74.80;100723.20;1760437;78;25895;-65
2021/03/04 05:18:14;;;;;;;101.95;41.58;;;;;;;5.51;75.03;100728.10;1767807;78;50809;-65
2021/03/04 05:20:42;;;;;;;97.88;42.53;;;;;;;5.51;74.90;100727.65;1768683;79;28004;-65
2021/03/04 05:23:10;;;;;;;105.47;44.10;;;;;;;5.50;74.98;100723.23;1770546;78;26571;-65
2021/03/04 05:25:37;;;;;;;96.87;39.88;;;;;;;5.48;75.00;100734.81;1766503;78;25841;-65
2021/03/04 05:28:05;;;;;;;96.22;42.17;;;;;;;5.47;75.22;100727.30;1746963;80;26144;-65
2021/03/04 05:30:33;;;;;;;90.42;40.23;;;;;;;5.48;75.40;100721.52;1748947;79;25971;-65
2021/03/04 05:33:01;;;;;;;105.92;44.75;;;;;;;5.48;75.52;100726.84;1756304;79;27829;-65
2021/03/04 05:35:28;;;;;;;106.15;45.63;;;;;;;5.47;75.33;100728.63;1751970;79;25875;-64
2021/03/04 05:37:56;;;;;;;112.12;45.00;;;;;;;5.46;75.31;100728.20;1750979;79;26078;-65
2021/03/04 05:40:25;;;;;;;115.37;47.53;;;;;;;5.46;75.24;100721.55;1749037;79;26143;-65
2021/03/04 05:42:55;;;;;;;114.70;48.78;;;;;;;5.48;75.16;100718.41;1752646;79;25771;-65
2021/03/04 05:45:26;;;;;;;95.47;42.15;;;;;;;5.50;75.05;100716.59;1758219;79;27601;-66
2021/03/04 05:47:56;;;;;;;112.17;46.73;;;;;;;5.50;75.24;100716.59;1759608;79;26253;-65
2021/03/04 05:50:27;;;;;;;98.97;41.18;;;;;;;5.50;74.99;100726.35;1749745;79;26730;-65
2021/03/04 05:53:20;;;;;;;109.85;47.83;;;;;;;5.51;75.01;100730.77;1758099;79;26611;-65
2021/03/04 05:55:48;;;;;;;108.60;46.42;;;;;;;5.50;74.94;100726.35;1762026;78;26391;-66
2021/03/04 05:58:17;;;;;;;119.62;48.70;;;;;;;5.50;74.91;100727.23;1762438;78;28088;-65
2021/03/04 06:00:45;;;;;;;105.90;47.15;;;;;;;5.49;74.96;100720.61;1760740;78;26714;-66
2021/03/04 06:03:13;;;;;;;101.82;47.53;;;;;;;5.50;75.00;100734.33;1759550;78;26000;-67
2021/03/04 06:05:40;;;;;;;102.07;45.33;;;;;;;5.47;74.99;100727.30;1744136;80;26116;-65
2021/03/04 06:08:08;;;;;;;120.53;48.65;;;;;;;5.49;74.97;100731.25;1759936;78;25810;-65
2021/03/04 06:10:36;;;;;;;106.92;46.05;;;;;;;5.48;74.92;100733.03;1768312;78;27581;-65
2021/03/04 06:13:05;;;;;;;101.95;42.95;;;;;;;5.48;74.98;100731.70;1747899;80;26131;-65
2021/03/04 06:15:33;;;;;;;104.03;48.17;;;;;;;5.48;75.07;100729.05;1740706;79;25921;-65
2021/03/04 06:18:01;;;;;;;114.00;47.53;;;;;;;5.48;74.98;100729.05;1730304;80;26142;-65
2021/03/04 06:20:41;;;;;;;119.00;47.25;;;;;;;5.51;74.96;100730.31;1719332;80;25997;-65
2021/03/04 06:23:09;;;;;;;117.30;49.42;;;;;;;5.50;75.11;100729.89;1729566;80;27919;-64
2021/03/04 06:25:38;;;;;;;114.90;50.20;;;;;;;5.49;75.17;100733.45;1725101;80;25737;-65
2021/03/04 06:28:07;;;;;;;119.90;50.08;;;;;;;5.50;75.11;100724.56;1762097;78;26055;-65
2021/03/04 06:30:41;;;;;;;121.82;52.30;;;;;;;5.54;75.07;100736.02;1789902;77;26429;-65
2021/03/04 06:33:12;;;;;;;110.48;45.52;;;;;;;5.57;75.20;100740.39;1764219;78;25859;-65
2021/03/04 06:35:46;;;;;;;111.20;49.40;;;;;;;5.59;75.03;100735.91;1770983;79;28041;-64
2021/03/04 06:38:19;;;;;;;114.08;48.38;;;;;;;5.61;75.02;100742.08;1790489;77;25711;-65
2021/03/04 06:40:52;;;;;;;109.07;48.87;;;;;;;5.61;74.97;100740.75;1776595;78;25833;-66
2021/03/04 06:43:26;;;;;;;108.75;47.48;;;;;;;5.62;75.02;100735.84;1779916;78;26773;-65
2021/03/04 06:46:06;;;;;;;93.58;42.03;;;;;;;5.60;74.96;100739.88;1770235;79;25963;-66
2021/03/04 06:48:35;;;;;;;105.78;43.00;;;;;;;5.58;75.06;100736.83;1775586;78;27407;-65
2021/03/04 06:51:05;;;;;;;115.45;48.45;;;;;;;5.54;75.15;100742.20;1784898;78;25814;-65
2021/03/04 06:53:33;;;;;;;102.17;45.38;;;;;;;5.52;75.08;100740.03;1778152;78;29205;-65
2021/03/04 06:56:05;;;;;;;106.22;44.88;;;;;;;5.55;75.07;100747.95;1780192;78;26081;-65
2021/03/04 06:58:41;;;;;;;111.97;46.05;;;;;;;5.58;75.01;100743.02;1776457;78;25823;-65
2021/03/04 07:01:12;;;;;;;92.70;41.92;;;;;;;5.58;74.97;100747.00;1775922;78;28203;-65
2021/03/04 07:03:49;;;;;;;106.07;47.10;;;;;;;5.55;74.93;100742.63;1773411;78;25788;-66
2021/03/04 07:06:20;;;;;;;108.25;48.23;;;;;;;5.57;74.89;100751.91;1773411;78;25856;-65
2021/03/04 07:08:52;;;;;;;117.90;47.65;;;;;;;5.58;74.85;100748.33;1773223;78;25904;-66
2021/03/04 07:11:22;;;;;;;102.27;47.33;;;;;;;5.61;74.81;100754.04;1801407;77;26425;-65
2021/03/04 07:13:52;;;;;;;115.20;46.60;;;;;;;5.61;74.82;100751.38;1777049;78;27325;-64
2021/03/04 07:16:32;;;;;;;99.87;46.65;;;;;;;5.60;74.79;100749.17;1779028;78;25818;-65
2021/03/04 07:19:03;;;;;;;99.72;42.43;;;;;;;5.62;74.85;100754.46;1773681;79;25965;-66
2021/03/04 07:21:40;;;;;;;101.80;45.27;;;;;;;5.62;74.81;100749.14;1773734;78;25961;-65
2021/03/04 07:24:09;;;;;;;104.43;47.25;;;;;;;5.59;74.83;100749.20;1770141;79;26654;-66
2021/03/04 07:26:37;;;;;;;92.70;41.23;;;;;;;5.58;74.80;100743.47;1779248;77;27310;-65
2021/03/04 07:29:11;;;;;;;108.37;47.48;;;;;;;5.60;74.74;100744.31;1769448;79;25830;-65
2021/03/04 07:31:42;;;;;;;113.50;46.92;;;;;;;5.58;74.72;100746.13;1766080;78;26547;-65
2021/03/04 07:34:13;;;;;;;90.92;41.28;;;;;;;5.57;74.69;100743.05;1763032;78;25789;-67
2021/03/04 07:36:54;;;;;;;101.92;45.92;;;;;;;5.56;74.82;100742.17;1762948;78;26538;-65
2021/03/04 07:39:34;;;;;;;100.72;42.53;;;;;;;5.51;74.79;100740.94;1754314;78;27353;-64
2021/03/04 07:42:03;;;;;;;90.60;39.15;;;;;;;5.53;74.80;100733.81;1751649;79;25934;-64
2021/03/04 07:44:33;;;;;;;113.20;40.50;;;;;;;5.52;74.75;100736.05;1719198;79;25725;-65
2021/03/04 07:47:09;;;;;;;97.10;42.00;;;;;;;5.53;74.66;100734.27;1749086;80;26519;-65
2021/03/04 07:49:45;;;;;;;93.72;40.35;;;;;;;5.54;74.61;100728.91;1747973;79;25764;-64
2021/03/04 07:52:17;;;;;;;93.42;41.50;;;;;;;5.54;74.50;100720.94;1769452;76;26161;-63
2021/03/04 07:54:48;;;;;;;91.32;40.38;;;;;;;5.55;74.45;100714.71;1759630;78;26640;-63
2021/03/04 07:57:19;;;;;;;89.47;37.50;;;;;;;5.55;74.32;100722.69;1763038;78;25861;-63
2021/03/04 07:59:59;;;;;;;76.37;32.88;;;;;;;5.55;74.15;100723.14;1759843;79;32659;-65
2021/03/04 08:02:35;;;;;;;83.20;34.30;;;;;;;5.54;73.92;100730.70;1753673;78;25785;-64
2021/03/04 08:05:16;;;;;;;73.55;30.88;;;;;;;5.50;73.57;100721.91;1765183;79;27449;-65
2021/03/04 08:07:48;;;;;;;84.13;33.73;;;;;;;5.46;73.21;100734.84;1753745;80;25937;-63
2021/03/04 08:10:19;;;;;;;71.85;31.75;;;;;;;5.40;73.01;100724.80;1770362;77;26415;-65
2021/03/04 08:12:51;;;;;;;81.72;33.18;;;;;;;5.36;73.10;100722.66;1763876;78;25846;-63
2021/03/04 08:15:24;;;;;;;71.65;31.85;;;;;;;5.40;72.79;100724.34;1786083;78;25852;-64
2021/03/04 08:17:51;;;;;;;86.80;32.33;;;;;;;5.39;72.83;100721.27;1756708;80;27398;-63
2021/03/04 08:20:21;;;;;;;77.42;32.33;;;;;;;5.43;72.82;100723.41;1767836;78;25879;-64
2021/03/04 08:22:52;;;;;;;83.12;33.25;;;;;;;5.46;72.70;100722.01;1732173;79;26570;-64
2021/03/04 08:25:27;;;;;;;76.77;27.80;;;;;;;5.48;72.72;100714.42;1783414;77;25813;-63
2021/03/04 08:27:58;;;;;;;68.45;27.20;;;;;;;5.52;72.57;100722.75;1778256;79;26325;-63
2021/03/04 08:30:40;;;;;;;64.00;27.48;;;;;;;5.48;72.15;100735.69;1781699;77;27746;-64
2021/03/04 08:33:12;;;;;;;62.35;27.10;;;;;;;5.43;72.14;100728.72;1786008;77;25880;-64
2021/03/04 08:35:47;;;;;;;71.57;29.95;;;;;;;5.42;71.83;100736.27;1765869;78;25851;-63
2021/03/04 08:38:21;;;;;;;69.22;27.40;;;;;;;5.38;71.88;100731.92;1763252;78;26708;-63
2021/03/04 08:40:54;;;;;;;59.83;26.40;;;;;;;5.39;71.88;100729.69;1770042;78;25797;-64
2021/03/04 08:43:28;;;;;;;64.85;27.80;;;;;;;5.40;71.65;100730.98;1766198;78;27934;-63
2021/03/04 08:46:00;;;;;;;80.95;30.85;;;;;;;5.40;71.47;100731.44;1768563;78;26007;-63
2021/03/04 08:48:28;;;;;;;63.80;27.40;;;;;;;5.36;71.14;100731.95;1762984;78;25808;-63
2021/03/04 08:51:05;;;;;;;67.10;28.17;;;;;;;5.32;70.96;100750.20;1764155;78;26320;-63
2021/03/04 08:53:36;;;;;;;67.35;26.90;;;;;;;5.29;70.92;100746.28;1772301;78;25792;-63
2021/03/04 08:56:08;;;;;;;72.95;28.12;;;;;;;5.28;70.88;100744.98;1763247;78;26533;-64
2021/03/04 08:58:42;;;;;;;64.60;27.10;;;;;;;5.30;70.97;100749.36;1765427;78;25904;-64
2021/03/04 09:01:13;;;;;;;73.17;28.57;;;;;;;5.32;70.85;100737.37;1765047;78;26652;-64
2021/03/04 09:03:44;;;;;;;62.03;24.05;;;;;;;5.37;70.67;100741.69;1788199;77;25816;-63
2021/03/04 09:06:14;;;;;;;;;;;;;;;5.37;70.48;100731.05;1775025;78;25922;-63
2021/03/04 09:08:48;;;;;;;59.73;24.15;;;;;;;5.40;70.33;100722.14;1768061;78;27482;-64
2021/03/04 09:11:35;;;;;;;59.63;27.02;;;;;;;5.44;70.26;100732.67;1794585;77;26604;-63
2021/03/04 09:14:08;;;;;;;61.40;26.57;;;;;;;5.47;69.87;100736.59;1769955;78;25871;-64
2021/03/04 09:16:49;;;;;;;64.30;25.50;;;;;;;5.43;69.54;100736.23;1774792;78;25982;-63
2021/03/04 09:19:31;;;;;;;61.55;26.30;;;;;;;5.44;69.61;100736.66;1792552;77;25897;-64
2021/03/04 09:22:11;;;;;;;67.92;28.05;;;;;;;5.49;69.65;100737.89;1762981;78;27964;-63
2021/03/04 09:24:40;;;;;;;61.53;24.15;;;;;;;5.55;69.65;100735.98;1769184;78;25844;-64
2021/03/04 09:27:11;;;;;;;70.47;26.10;;;;;;;5.59;69.50;100738.58;1758904;78;25895;-64
2021/03/04 09:29:41;;;;;;;62.78;26.93;;;;;;;5.57;69.23;100737.73;1767373;78;26044;-63
2021/03/04 09:32:09;;;;;;;68.78;30.85;;;;;;;5.57;69.25;100741.27;1762642;78;25873;-63
2021/03/04 09:34:43;;;;;;;66.87;26.00;;;;;;;5.53;69.18;100728.49;1765950;78;28075;-63
2021/03/04 09:37:24;;;;;;;58.05;26.27;;;;;;;5.56;69.15;100731.54;1762542;78;26444;-63
2021/03/04 09:39:55;;;;;;;56.28;24.55;;;;;;;5.53;69.01;100731.16;1766051;78;26447;-64
2021/03/04 09:42:38;;;;;;;64.12;28.83;;;;;;;5.52;69.08;100729.85;1760917;78;26198;-64
2021/03/04 09:45:11;;;;;;;67.70;28.45;;;;;;;5.45;68.77;100734.42;1765768;80;26543;-63
2021/03/04 09:47:48;;;;;;;65.97;28.87;;;;;;;5.43;68.82;100738.89;1764669;78;28459;-64
2021/03/04 09:50:23;;;;;;;55.67;23.90;;;;;;;5.38;68.75;100720.84;1757952;78;26093;-64
2021/03/04 09:53:07;;;;;;;63.60;26.15;;;;;;;5.44;68.54;100736.66;1766810;78;25420;-63
2021/03/04 09:55:44;;;;;;;64.00;26.82;;;;;;;5.40;68.44;100752.70;1764442;78;26086;-64
2021/03/04 09:58:24;;;;;;;62.73;26.57;;;;;;;5.36;68.51;100746.58;1769284;78;26159;-64
2021/03/04 10:01:00;;;;;;;62.67;27.02;;;;;;;5.33;68.32;100741.33;1761633;78;27421;-64
2021/03/04 10:03:36;;;;;;;76.05;29.87;;;;;;;5.32;68.37;100748.87;1762953;78;26463;-64
2021/03/04 10:06:08;;;;;;;65.65;28.65;;;;;;;5.29;68.38;100745.41;1762207;78;25810;-64
2021/03/04 10:08:41;;;;;;;74.62;28.05;;;;;;;5.28;68.53;100752.50;1789052;78;26771;-65
2021/03/04 10:11:22;;;;;;;81.28;29.30;;;;;;;5.26;68.56;100748.13;1764311;78;25853;-64
2021/03/04 10:13:50;;;;;;;79.17;30.62;;;;;;;5.26;68.70;100759.63;1761344;78;28193;-64
2021/03/04 10:16:18;;;;;;;75.20;31.82;;;;;;;5.22;68.77;100757.94;1768701;77;26304;-64
2021/03/04 10:18:49;;;;;;;75.95;30.82;;;;;;;5.15;68.82;100759.87;1752784;78;25857;-64
2021/03/04 10:21:19;;;;;;;76.17;31.82;;;;;;;5.10;68.92;100754.22;1768758;78;26078;-63
2021/03/04 10:23:49;;;;;;;74.70;32.20;;;;;;;5.05;69.16;100752.10;1766651;78;26398;-63
2021/03/04 10:26:17;;;;;;;74.17;30.32;;;;;;;5.02;69.23;100757.47;1772321;78;27791;-63
2021/03/04 10:28:44;;;;;;;74.75;26.77;;;;;;;4.95;69.33;100759.82;1767157;78;25849;-63
2021/03/04 10:31:12;;;;;;;61.90;25.75;;;;;;;4.88;69.37;100758.61;1767571;78;25918;-64
2021/03/04 10:33:41;;;;;;;69.25;25.92;;;;;;;4.81;69.50;100768.04;1785269;78;26104;-64
2021/03/04 10:36:10;;;;;;;60.28;24.72;;;;;;;4.74;69.50;100773.03;1755058;79;25852;-64
2021/03/04 10:38:37;;;;;;;64.90;25.48;;;;;;;4.72;69.53;100772.19;1767624;78;27447;-63
2021/03/04 10:41:05;;;;;;;64.53;24.90;;;;;;;4.66;69.55;100773.62;1771044;79;26081;-63
2021/03/04 10:43:33;;;;;;;61.55;22.85;;;;;;;4.61;69.61;100775.02;1739475;79;25794;-64
2021/03/04 10:46:00;;;;;;;61.02;24.63;;;;;;;4.59;69.66;100772.84;1763427;78;26697;-65
2021/03/04 10:48:28;;;;;;;53.73;23.32;;;;;;;4.54;69.75;100777.35;1764151;78;25761;-64
2021/03/04 10:50:56;;;;;;;66.12;26.65;;;;;;;4.55;69.70;100769.37;1775355;78;28704;-64
2021/03/04 10:53:24;;;;;;;60.35;25.15;;;;;;;4.54;69.76;100773.38;1764863;78;26327;-65
2021/03/04 10:55:51;;;;;;;62.33;24.47;;;;;;;4.59;69.73;100775.50;1763381;78;26007;-63
2021/03/04 10:58:19;;;;;;;59.83;25.17;;;;;;;4.62;69.75;100777.23;1759492;79;26666;-64
2021/03/04 11:00:47;;;;;;;61.37;24.63;;;;;;;4.67;69.84;100770.94;1770646;78;25774;-64
2021/03/04 11:03:15;;;;;;;61.65;24.77;;;;;;;4.77;69.76;100770.33;1766822;78;28456;-63
2021/03/04 11:05:42;;;;;;;59.80;22.98;;;;;;;4.80;69.66;100775.13;1766377;78;25916;-63
2021/03/04 11:08:11;;;;;;;62.00;24.70;;;;;;;4.79;69.49;100765.41;1762513;78;26438;-63
2021/03/04 11:10:39;;;;;;;64.50;24.87;;;;;;;4.75;68.87;100770.80;1759857;78;25765;-75
2021/03/04 11:13:08;;;;;;;66.07;23.98;;;;;;;4.68;69.06;100768.70;1761255;78;25840;-63
2021/03/04 11:15:36;;;;;;;57.13;23.45;;;;;;;4.70;69.05;100765.58;1764131;78;25786;-63
2021/03/04 11:18:04;;;;;;;68.35;24.67;;;;;;;4.68;69.01;100762.07;1759046;80;26266;-63
2021/03/04 11:20:32;;;;;;;77.22;27.05;;;;;;;4.73;69.05;100766.84;1774223;77;26412;-62
2021/03/04 11:22:59;;;;;;;55.03;23.45;;;;;;;4.73;68.89;100753.57;1775131;78;26017;-63
2021/03/04 11:25:27;;;;;;;58.68;23.90;;;;;;;4.75;68.83;100757.53;1762271;78;25862;-64
2021/03/04 11:27:55;;;;;;;71.22;24.98;;;;;;;4.74;68.47;100747.81;1748604;79;26045;-63
2021/03/04 11:30:24;;;;;;;59.20;23.65;;;;;;;4.67;68.40;100744.39;1759894;79;25905;-63
2021/03/04 11:32:51;;;;;;;73.95;27.00;;;;;;;4.67;68.46;100745.72;1759167;79;26154;-64